Qiryat Motzkin, Israel
Current Conditions -  °F | °C
As of 6:50 PM on Friday 19 Dec 2014 (Local Time) from LLHA Reporting Station
Few Clouds Few Clouds  
Wind Chill: 59°   Ceiling: Unl
Heat Index: 59°   Visibility: 6mi
Dew Point: 54°   Wind: 3mph
Humidity: 82%   Direction: NA
Pressure: 30.09"   Gusts: NA
Location:  32.82°N, 35.06°E
Report Text: LLHA 191550Z VRB03KT 9000 FEW030 15/12 Q1019
Loading
Personal Weather Stations






























Interactive Weather Map New forecast layout! Learn more

10-Day Weather Forecast

Advertisements
Track Severe Weather on mobile